sensor_id;sensor_type;location;lat;lon;timestamp;P1;durP1;ratioP1;P2;durP2;ratioP2
33780;SDS011;20097;50.832;19.100;2023-06-22T00:04:51;25.80;;;22.45;;
33780;SDS011;20097;50.832;19.100;2023-06-22T00:09:55;27.92;;;24.63;;
33780;SDS011;20097;50.832;19.100;2023-06-22T00:15:01;25.45;;;22.23;;
33780;SDS011;20097;50.832;19.100;2023-06-22T00:20:06;27.08;;;24.27;;
33780;SDS011;20097;50.832;19.100;2023-06-22T00:25:13;24.63;;;21.92;;
33780;SDS011;20097;50.832;19.100;2023-06-22T00:30:19;24.05;;;20.95;;
33780;SDS011;20097;50.832;19.100;2023-06-22T00:35:23;28.88;;;23.17;;
33780;SDS011;20097;50.832;19.100;2023-06-22T00:40:31;25.67;;;22.95;;
33780;SDS011;20097;50.832;19.100;2023-06-22T00:45:38;24.92;;;22.17;;
33780;SDS011;20097;50.832;19.100;2023-06-22T00:50:42;24.42;;;21.92;;
33780;SDS011;20097;50.832;19.100;2023-06-22T01:00:55;25.70;;;21.25;;
33780;SDS011;20097;50.832;19.100;2023-06-22T01:06:06;23.67;;;20.77;;
33780;SDS011;20097;50.832;19.100;2023-06-22T01:11:16;23.80;;;21.20;;
33780;SDS011;20097;50.832;19.100;2023-06-22T01:16:26;25.02;;;22.33;;
33780;SDS011;20097;50.832;19.100;2023-06-22T01:21:34;24.05;;;21.45;;
33780;SDS011;20097;50.832;19.100;2023-06-22T01:26:42;26.85;;;20.70;;
33780;SDS011;20097;50.832;19.100;2023-06-22T01:31:59;24.70;;;20.92;;
33780;SDS011;20097;50.832;19.100;2023-06-22T01:37:09;26.40;;;20.75;;
33780;SDS011;20097;50.832;19.100;2023-06-22T01:42:15;24.23;;;20.50;;
33780;SDS011;20097;50.832;19.100;2023-06-22T01:47:21;25.80;;;18.75;;
33780;SDS011;20097;50.832;19.100;2023-06-22T01:52:27;22.27;;;20.00;;
33780;SDS011;20097;50.832;19.100;2023-06-22T01:57:32;22.30;;;19.92;;
33780;SDS011;20097;50.832;19.100;2023-06-22T02:02:40;22.30;;;19.30;;
33780;SDS011;20097;50.832;19.100;2023-06-22T02:07:59;21.13;;;18.88;;
33780;SDS011;20097;50.832;19.100;2023-06-22T02:13:11;20.67;;;17.85;;
33780;SDS011;20097;50.832;19.100;2023-06-22T02:18:18;22.83;;;18.30;;
33780;SDS011;20097;50.832;19.100;2023-06-22T02:23:23;21.80;;;17.77;;
33780;SDS011;20097;50.832;19.100;2023-06-22T02:28:28;20.40;;;18.20;;
33780;SDS011;20097;50.832;19.100;2023-06-22T02:33:34;20.08;;;16.88;;
33780;SDS011;20097;50.832;19.100;2023-06-22T02:38:42;18.58;;;16.00;;
33780;SDS011;20097;50.832;19.100;2023-06-22T02:43:50;18.85;;;16.85;;
33780;SDS011;20097;50.832;19.100;2023-06-22T02:48:56;19.85;;;15.43;;
33780;SDS011;20097;50.832;19.100;2023-06-22T02:54:00;24.05;;;18.20;;
33780;SDS011;20097;50.832;19.100;2023-06-22T03:04:14;22.52;;;19.10;;
33780;SDS011;20097;50.832;19.100;2023-06-22T03:09:19;20.30;;;17.70;;
33780;SDS011;20097;50.832;19.100;2023-06-22T03:14:24;23.13;;;19.48;;
33780;SDS011;20097;50.832;19.100;2023-06-22T03:19:30;22.95;;;18.17;;
33780;SDS011;20097;50.832;19.100;2023-06-22T03:24:34;25.05;;;19.60;;
33780;SDS011;20097;50.832;19.100;2023-06-22T03:29:41;24.33;;;21.52;;
33780;SDS011;20097;50.832;19.100;2023-06-22T03:34:48;26.25;;;21.00;;
33780;SDS011;20097;50.832;19.100;2023-06-22T03:39:52;26.63;;;20.98;;
33780;SDS011;20097;50.832;19.100;2023-06-22T03:44:57;26.60;;;21.25;;
33780;SDS011;20097;50.832;19.100;2023-06-22T03:50:05;25.55;;;21.73;;
33780;SDS011;20097;50.832;19.100;2023-06-22T03:55:10;27.85;;;22.48;;
33780;SDS011;20097;50.832;19.100;2023-06-22T04:00:15;24.90;;;22.20;;
33780;SDS011;20097;50.832;19.100;2023-06-22T04:05:21;24.63;;;21.63;;
33780;SDS011;20097;50.832;19.100;2023-06-22T04:10:26;24.38;;;20.98;;
33780;SDS011;20097;50.832;19.100;2023-06-22T04:15:31;29.08;;;23.65;;
33780;SDS011;20097;50.832;19.100;2023-06-22T04:20:37;26.08;;;20.75;;
33780;SDS011;20097;50.832;19.100;2023-06-22T04:25:41;26.42;;;21.40;;
33780;SDS011;20097;50.832;19.100;2023-06-22T04:30:46;22.95;;;19.48;;
33780;SDS011;20097;50.832;19.100;2023-06-22T04:35:51;24.77;;;20.75;;
33780;SDS011;20097;50.832;19.100;2023-06-22T04:40:56;26.48;;;20.30;;
33780;SDS011;20097;50.832;19.100;2023-06-22T04:46:00;22.40;;;20.10;;
33780;SDS011;20097;50.832;19.100;2023-06-22T04:51:07;20.42;;;17.30;;
33780;SDS011;20097;50.832;19.100;2023-06-22T04:56:12;23.77;;;18.65;;
33780;SDS011;20097;50.832;19.100;2023-06-22T05:01:18;19.27;;;16.50;;
33780;SDS011;20097;50.832;19.100;2023-06-22T05:06:26;20.42;;;16.13;;
33780;SDS011;20097;50.832;19.100;2023-06-22T05:11:31;17.00;;;13.35;;
33780;SDS011;20097;50.832;19.100;2023-06-22T05:16:35;16.15;;;13.40;;
33780;SDS011;20097;50.832;19.100;2023-06-22T05:21:41;14.15;;;12.65;;
33780;SDS011;20097;50.832;19.100;2023-06-22T05:26:46;12.73;;;11.40;;
33780;SDS011;20097;50.832;19.100;2023-06-22T05:31:50;11.73;;;10.52;;
33780;SDS011;20097;50.832;19.100;2023-06-22T05:42:02;11.40;;;10.00;;
33780;SDS011;20097;50.832;19.100;2023-06-22T05:47:11;11.77;;;9.57;;
33780;SDS011;20097;50.832;19.100;2023-06-22T05:52:17;11.13;;;10.02;;
33780;SDS011;20097;50.832;19.100;2023-06-22T05:57:21;10.20;;;9.20;;
33780;SDS011;20097;50.832;19.100;2023-06-22T06:02:26;9.02;;;8.10;;
33780;SDS011;20097;50.832;19.100;2023-06-22T06:07:32;8.88;;;7.78;;
33780;SDS011;20097;50.832;19.100;2023-06-22T06:12:37;7.93;;;7.13;;
33780;SDS011;20097;50.832;19.100;2023-06-22T06:17:45;10.30;;;8.23;;
33780;SDS011;20097;50.832;19.100;2023-06-22T06:22:52;11.60;;;8.30;;
33780;SDS011;20097;50.832;19.100;2023-06-22T06:27:56;9.43;;;8.18;;
33780;SDS011;20097;50.832;19.100;2023-06-22T06:33:01;8.20;;;7.25;;
33780;SDS011;20097;50.832;19.100;2023-06-22T06:38:08;10.10;;;7.75;;
33780;SDS011;20097;50.832;19.100;2023-06-22T06:43:13;8.07;;;6.78;;
33780;SDS011;20097;50.832;19.100;2023-06-22T06:48:17;8.13;;;7.18;;
33780;SDS011;20097;50.832;19.100;2023-06-22T06:58:27;8.95;;;6.93;;
33780;SDS011;20097;50.832;19.100;2023-06-22T07:13:42;7.90;;;7.10;;
33780;SDS011;20097;50.832;19.100;2023-06-22T07:18:47;8.63;;;7.72;;
33780;SDS011;20097;50.832;19.100;2023-06-22T07:23:53;12.30;;;8.60;;
33780;SDS011;20097;50.832;19.100;2023-06-22T07:28:58;9.27;;;8.38;;
33780;SDS011;20097;50.832;19.100;2023-06-22T07:34:03;8.95;;;7.80;;
33780;SDS011;20097;50.832;19.100;2023-06-22T07:44:14;9.55;;;8.10;;
33780;SDS011;20097;50.832;19.100;2023-06-22T07:54:24;8.77;;;7.97;;
33780;SDS011;20097;50.832;19.100;2023-06-22T07:59:28;10.15;;;7.43;;
33780;SDS011;20097;50.832;19.100;2023-06-22T08:09:45;9.80;;;8.68;;
33780;SDS011;20097;50.832;19.100;2023-06-22T08:14:51;10.05;;;8.13;;
33780;SDS011;20097;50.832;19.100;2023-06-22T08:25:01;9.73;;;7.82;;
33780;SDS011;20097;50.832;19.100;2023-06-22T08:30:06;11.88;;;8.88;;
33780;SDS011;20097;50.832;19.100;2023-06-22T08:35:13;9.48;;;8.13;;
33780;SDS011;20097;50.832;19.100;2023-06-22T08:40:19;8.88;;;8.07;;
33780;SDS011;20097;50.832;19.100;2023-06-22T08:45:25;10.30;;;8.55;;
33780;SDS011;20097;50.832;19.100;2023-06-22T08:50:31;9.00;;;8.10;;
33780;SDS011;20097;50.832;19.100;2023-06-22T09:00:41;8.63;;;7.75;;
33780;SDS011;20097;50.832;19.100;2023-06-22T09:10:52;10.18;;;8.20;;
33780;SDS011;20097;50.832;19.100;2023-06-22T09:15:56;10.30;;;8.48;;
33780;SDS011;20097;50.832;19.100;2023-06-22T09:26:06;9.90;;;8.10;;
33780;SDS011;20097;50.832;19.100;2023-06-22T09:31:10;10.07;;;7.88;;
33780;SDS011;20097;50.832;19.100;2023-06-22T09:36:15;9.25;;;8.30;;
33780;SDS011;20097;50.832;19.100;2023-06-22T09:41:21;9.30;;;8.43;;
33780;SDS011;20097;50.832;19.100;2023-06-22T09:46:26;7.95;;;7.25;;
33780;SDS011;20097;50.832;19.100;2023-06-22T09:51:31;8.90;;;8.07;;
33780;SDS011;20097;50.832;19.100;2023-06-22T09:56:37;8.45;;;7.63;;
33780;SDS011;20097;50.832;19.100;2023-06-22T10:01:41;9.27;;;8.20;;
33780;SDS011;20097;50.832;19.100;2023-06-22T10:06:45;8.60;;;7.75;;
33780;SDS011;20097;50.832;19.100;2023-06-22T10:11:51;7.82;;;7.13;;
33780;SDS011;20097;50.832;19.100;2023-06-22T10:16:55;8.10;;;7.40;;
33780;SDS011;20097;50.832;19.100;2023-06-22T10:22:01;9.63;;;7.70;;
33780;SDS011;20097;50.832;19.100;2023-06-22T10:27:08;8.13;;;7.18;;
33780;SDS011;20097;50.832;19.100;2023-06-22T10:32:12;8.40;;;7.60;;
33780;SDS011;20097;50.832;19.100;2023-06-22T10:37:17;10.07;;;7.10;;
33780;SDS011;20097;50.832;19.100;2023-06-22T10:42:23;7.05;;;6.28;;
33780;SDS011;20097;50.832;19.100;2023-06-22T10:47:27;9.70;;;7.53;;
33780;SDS011;20097;50.832;19.100;2023-06-22T10:52:31;7.13;;;6.53;;
33780;SDS011;20097;50.832;19.100;2023-06-22T10:57:37;6.75;;;6.15;;
33780;SDS011;20097;50.832;19.100;2023-06-22T11:02:45;9.57;;;6.97;;
33780;SDS011;20097;50.832;19.100;2023-06-22T11:07:50;9.50;;;6.53;;
33780;SDS011;20097;50.832;19.100;2023-06-22T11:12:59;7.55;;;6.78;;
33780;SDS011;20097;50.832;19.100;2023-06-22T11:18:05;6.68;;;6.07;;
33780;SDS011;20097;50.832;19.100;2023-06-22T11:23:11;6.78;;;6.07;;
33780;SDS011;20097;50.832;19.100;2023-06-22T11:28:17;7.30;;;6.63;;
33780;SDS011;20097;50.832;19.100;2023-06-22T11:33:21;7.00;;;6.38;;
33780;SDS011;20097;50.832;19.100;2023-06-22T11:38:25;7.43;;;6.72;;
33780;SDS011;20097;50.832;19.100;2023-06-22T11:43:31;8.18;;;6.82;;
33780;SDS011;20097;50.832;19.100;2023-06-22T11:48:36;9.52;;;6.35;;
33780;SDS011;20097;50.832;19.100;2023-06-22T11:53:40;7.13;;;6.43;;
33780;SDS011;20097;50.832;19.100;2023-06-22T11:58:46;8.40;;;6.50;;
33780;SDS011;20097;50.832;19.100;2023-06-22T12:03:50;6.60;;;5.97;;
33780;SDS011;20097;50.832;19.100;2023-06-22T12:08:55;6.75;;;6.15;;
33780;SDS011;20097;50.832;19.100;2023-06-22T12:14:01;6.68;;;6.07;;
33780;SDS011;20097;50.832;19.100;2023-06-22T12:19:06;7.10;;;6.35;;
33780;SDS011;20097;50.832;19.100;2023-06-22T12:24:10;6.70;;;6.10;;
33780;SDS011;20097;50.832;19.100;2023-06-22T12:29:16;7.00;;;6.25;;
33780;SDS011;20097;50.832;19.100;2023-06-22T12:34:20;6.45;;;5.82;;
33780;SDS011;20097;50.832;19.100;2023-06-22T12:39:25;6.80;;;6.20;;
33780;SDS011;20097;50.832;19.100;2023-06-22T12:44:31;8.05;;;6.30;;
33780;SDS011;20097;50.832;19.100;2023-06-22T12:49:35;6.22;;;5.72;;
33780;SDS011;20097;50.832;19.100;2023-06-22T12:54:39;6.45;;;5.85;;
33780;SDS011;20097;50.832;19.100;2023-06-22T12:59:58;7.93;;;6.15;;
33780;SDS011;20097;50.832;19.100;2023-06-22T13:05:04;7.57;;;5.95;;
33780;SDS011;20097;50.832;19.100;2023-06-22T13:10:09;11.32;;;6.47;;
33780;SDS011;20097;50.832;19.100;2023-06-22T13:15:15;6.50;;;5.80;;
33780;SDS011;20097;50.832;19.100;2023-06-22T13:20:20;7.43;;;6.00;;
33780;SDS011;20097;50.832;19.100;2023-06-22T13:25:24;5.93;;;5.45;;
33780;SDS011;20097;50.832;19.100;2023-06-22T13:30:31;6.70;;;5.80;;
33780;SDS011;20097;50.832;19.100;2023-06-22T13:35:35;6.43;;;5.82;;
33780;SDS011;20097;50.832;19.100;2023-06-22T13:40:40;5.78;;;5.28;;
33780;SDS011;20097;50.832;19.100;2023-06-22T13:45:45;6.20;;;5.70;;
33780;SDS011;20097;50.832;19.100;2023-06-22T13:50:50;6.28;;;5.70;;
33780;SDS011;20097;50.832;19.100;2023-06-22T13:55:55;5.63;;;5.13;;
33780;SDS011;20097;50.832;19.100;2023-06-22T14:01:01;6.03;;;5.47;;
33780;SDS011;20097;50.832;19.100;2023-06-22T14:06:05;5.57;;;5.15;;
33780;SDS011;20097;50.832;19.100;2023-06-22T14:11:12;5.72;;;5.20;;
33780;SDS011;20097;50.832;19.100;2023-06-22T14:16:17;5.97;;;5.47;;
33780;SDS011;20097;50.832;19.100;2023-06-22T14:21:22;5.40;;;5.00;;
33780;SDS011;20097;50.832;19.100;2023-06-22T14:26:27;5.85;;;5.35;;
33780;SDS011;20097;50.832;19.100;2023-06-22T14:31:33;8.18;;;5.72;;
33780;SDS011;20097;50.832;19.100;2023-06-22T14:36:37;6.22;;;5.65;;
33780;SDS011;20097;50.832;19.100;2023-06-22T14:41:41;5.85;;;5.22;;
33780;SDS011;20097;50.832;19.100;2023-06-22T14:46:47;6.10;;;5.50;;
33780;SDS011;20097;50.832;19.100;2023-06-22T14:51:51;6.40;;;5.80;;
33780;SDS011;20097;50.832;19.100;2023-06-22T14:56:56;6.43;;;5.82;;
33780;SDS011;20097;50.832;19.100;2023-06-22T15:02:01;6.40;;;5.80;;
33780;SDS011;20097;50.832;19.100;2023-06-22T15:07:06;5.80;;;5.32;;
33780;SDS011;20097;50.832;19.100;2023-06-22T15:12:10;8.75;;;5.95;;
33780;SDS011;20097;50.832;19.100;2023-06-22T15:17:16;6.03;;;5.53;;
33780;SDS011;20097;50.832;19.100;2023-06-22T15:22:20;5.97;;;5.47;;
33780;SDS011;20097;50.832;19.100;2023-06-22T15:27:25;8.25;;;5.82;;
33780;SDS011;20097;50.832;19.100;2023-06-22T15:32:31;5.85;;;5.43;;
33780;SDS011;20097;50.832;19.100;2023-06-22T15:37:35;5.18;;;4.78;;
33780;SDS011;20097;50.832;19.100;2023-06-22T15:42:40;6.15;;;5.55;;
33780;SDS011;20097;50.832;19.100;2023-06-22T15:47:45;6.18;;;5.68;;
33780;SDS011;20097;50.832;19.100;2023-06-22T15:52:50;5.10;;;4.60;;
33780;SDS011;20097;50.832;19.100;2023-06-22T15:57:54;5.38;;;4.97;;
33780;SDS011;20097;50.832;19.100;2023-06-22T16:03:00;5.03;;;4.50;;
33780;SDS011;20097;50.832;19.100;2023-06-22T16:08:08;5.68;;;4.15;;
33780;SDS011;20097;50.832;19.100;2023-06-22T16:13:15;4.82;;;4.38;;
33780;SDS011;20097;50.832;19.100;2023-06-22T16:18:21;4.88;;;4.47;;
33780;SDS011;20097;50.832;19.100;2023-06-22T16:23:25;4.68;;;4.28;;
33780;SDS011;20097;50.832;19.100;2023-06-22T16:28:29;6.00;;;5.00;;
33780;SDS011;20097;50.832;19.100;2023-06-22T16:33:36;5.78;;;4.55;;
33780;SDS011;20097;50.832;19.100;2023-06-22T16:38:40;7.05;;;5.18;;
33780;SDS011;20097;50.832;19.100;2023-06-22T16:43:45;5.32;;;4.40;;
33780;SDS011;20097;50.832;19.100;2023-06-22T16:48:51;6.53;;;4.65;;
33780;SDS011;20097;50.832;19.100;2023-06-22T16:53:55;4.70;;;4.22;;
33780;SDS011;20097;50.832;19.100;2023-06-22T16:59:00;6.22;;;4.28;;
33780;SDS011;20097;50.832;19.100;2023-06-22T17:04:10;5.20;;;4.07;;
33780;SDS011;20097;50.832;19.100;2023-06-22T17:09:19;5.18;;;3.60;;
33780;SDS011;20097;50.832;19.100;2023-06-22T17:14:28;9.85;;;3.90;;
33780;SDS011;20097;50.832;19.100;2023-06-22T17:19:34;7.07;;;4.55;;
33780;SDS011;20097;50.832;19.100;2023-06-22T17:24:39;5.60;;;3.65;;
33780;SDS011;20097;50.832;19.100;2023-06-22T17:29:44;4.40;;;3.88;;
33780;SDS011;20097;50.832;19.100;2023-06-22T17:34:50;3.97;;;3.55;;
33780;SDS011;20097;50.832;19.100;2023-06-22T17:39:57;4.53;;;3.22;;
33780;SDS011;20097;50.832;19.100;2023-06-22T17:45:02;3.85;;;3.42;;
33780;SDS011;20097;50.832;19.100;2023-06-22T17:50:09;7.32;;;3.45;;
33780;SDS011;20097;50.832;19.100;2023-06-22T17:55:14;6.55;;;3.55;;
33780;SDS011;20097;50.832;19.100;2023-06-22T18:00:19;4.05;;;3.33;;
33780;SDS011;20097;50.832;19.100;2023-06-22T18:05:32;6.88;;;3.10;;
33780;SDS011;20097;50.832;19.100;2023-06-22T18:10:37;3.00;;;2.70;;
33780;SDS011;20097;50.832;19.100;2023-06-22T18:15:43;4.53;;;2.60;;
33780;SDS011;20097;50.832;19.100;2023-06-22T18:20:50;3.17;;;2.30;;
33780;SDS011;20097;50.832;19.100;2023-06-22T18:25:54;5.88;;;2.83;;
33780;SDS011;20097;50.832;19.100;2023-06-22T18:31:00;5.25;;;3.15;;
33780;SDS011;20097;50.832;19.100;2023-06-22T18:36:07;4.15;;;3.05;;
33780;SDS011;20097;50.832;19.100;2023-06-22T18:41:22;3.92;;;2.85;;
33780;SDS011;20097;50.832;19.100;2023-06-22T18:46:35;7.47;;;2.92;;
33780;SDS011;20097;50.832;19.100;2023-06-22T18:51:52;8.77;;;4.30;;
33780;SDS011;20097;50.832;19.100;2023-06-22T18:56:58;4.45;;;3.22;;
33780;SDS011;20097;50.832;19.100;2023-06-22T19:02:04;3.47;;;3.13;;
33780;SDS011;20097;50.832;19.100;2023-06-22T19:07:14;5.75;;;3.63;;
33780;SDS011;20097;50.832;19.100;2023-06-22T19:12:19;7.80;;;5.07;;
33780;SDS011;20097;50.832;19.100;2023-06-22T19:17:28;4.60;;;2.97;;
33780;SDS011;20097;50.832;19.100;2023-06-22T19:22:53;4.70;;;3.00;;
33780;SDS011;20097;50.832;19.100;2023-06-22T19:27:59;8.10;;;3.47;;
33780;SDS011;20097;50.832;19.100;2023-06-22T19:33:05;7.85;;;3.85;;
33780;SDS011;20097;50.832;19.100;2023-06-22T19:38:14;6.07;;;4.32;;
33780;SDS011;20097;50.832;19.100;2023-06-22T19:43:20;5.72;;;4.03;;
33780;SDS011;20097;50.832;19.100;2023-06-22T19:48:27;6.95;;;4.05;;
33780;SDS011;20097;50.832;19.100;2023-06-22T19:53:35;9.40;;;4.45;;
33780;SDS011;20097;50.832;19.100;2023-06-22T19:58:44;6.43;;;4.53;;
33780;SDS011;20097;50.832;19.100;2023-06-22T20:03:48;8.15;;;4.93;;
33780;SDS011;20097;50.832;19.100;2023-06-22T20:08:55;6.43;;;4.32;;
33780;SDS011;20097;50.832;19.100;2023-06-22T20:14:02;7.68;;;4.25;;
33780;SDS011;20097;50.832;19.100;2023-06-22T20:19:07;7.85;;;3.92;;
33780;SDS011;20097;50.832;19.100;2023-06-22T20:24:17;5.90;;;4.43;;
33780;SDS011;20097;50.832;19.100;2023-06-22T20:29:22;5.88;;;4.38;;
33780;SDS011;20097;50.832;19.100;2023-06-22T20:34:32;5.93;;;4.07;;
33780;SDS011;20097;50.832;19.100;2023-06-22T20:39:39;7.97;;;5.28;;
33780;SDS011;20097;50.832;19.100;2023-06-22T20:44:47;6.65;;;4.88;;
33780;SDS011;20097;50.832;19.100;2023-06-22T20:49:53;6.18;;;4.63;;
33780;SDS011;20097;50.832;19.100;2023-06-22T20:55:03;6.22;;;4.75;;
33780;SDS011;20097;50.832;19.100;2023-06-22T21:00:08;6.15;;;4.70;;
33780;SDS011;20097;50.832;19.100;2023-06-22T21:05:14;9.13;;;5.10;;
33780;SDS011;20097;50.832;19.100;2023-06-22T21:10:21;9.35;;;4.55;;
33780;SDS011;20097;50.832;19.100;2023-06-22T21:15:25;7.53;;;6.10;;
33780;SDS011;20097;50.832;19.100;2023-06-22T21:25:35;17.02;;;8.25;;
33780;SDS011;20097;50.832;19.100;2023-06-22T21:30:39;13.15;;;7.90;;
33780;SDS011;20097;50.832;19.100;2023-06-22T21:35:44;13.18;;;7.18;;
33780;SDS011;20097;50.832;19.100;2023-06-22T21:40:50;15.30;;;7.60;;
33780;SDS011;20097;50.832;19.100;2023-06-22T21:45:54;10.45;;;7.28;;
33780;SDS011;20097;50.832;19.100;2023-06-22T21:50:59;10.05;;;6.70;;
33780;SDS011;20097;50.832;19.100;2023-06-22T21:56:05;10.27;;;6.40;;
33780;SDS011;20097;50.832;19.100;2023-06-22T22:01:09;8.45;;;6.03;;
33780;SDS011;20097;50.832;19.100;2023-06-22T22:11:21;12.32;;;7.30;;
33780;SDS011;20097;50.832;19.100;2023-06-22T22:16:27;9.85;;;7.13;;
33780;SDS011;20097;50.832;19.100;2023-06-22T22:21:31;10.48;;;6.75;;
33780;SDS011;20097;50.832;19.100;2023-06-22T22:26:37;11.20;;;7.28;;
33780;SDS011;20097;50.832;19.100;2023-06-22T22:31:41;9.88;;;6.50;;
33780;SDS011;20097;50.832;19.100;2023-06-22T22:36:46;10.15;;;8.88;;
33780;SDS011;20097;50.832;19.100;2023-06-22T22:41:52;9.98;;;7.20;;
33780;SDS011;20097;50.832;19.100;2023-06-22T22:46:56;9.70;;;6.95;;
33780;SDS011;20097;50.832;19.100;2023-06-22T22:52:02;9.50;;;7.90;;
33780;SDS011;20097;50.832;19.100;2023-06-22T22:57:08;11.43;;;8.63;;
33780;SDS011;20097;50.832;19.100;2023-06-22T23:02:13;16.33;;;11.10;;
33780;SDS011;20097;50.832;19.100;2023-06-22T23:07:18;14.77;;;10.55;;
33780;SDS011;20097;50.832;19.100;2023-06-22T23:17:29;14.57;;;11.63;;
33780;SDS011;20097;50.832;19.100;2023-06-22T23:22:34;14.68;;;10.50;;
33780;SDS011;20097;50.832;19.100;2023-06-22T23:27:41;17.52;;;11.88;;
33780;SDS011;20097;50.832;19.100;2023-06-22T23:32:46;17.13;;;11.65;;
33780;SDS011;20097;50.832;19.100;2023-06-22T23:42:57;12.20;;;9.70;;
33780;SDS011;20097;50.832;19.100;2023-06-22T23:48:01;11.80;;;9.30;;
33780;SDS011;20097;50.832;19.100;2023-06-22T23:53:06;14.13;;;11.43;;
33780;SDS011;20097;50.832;19.100;2023-06-22T23:58:13;17.77;;;11.95;;
